Time;durP1;ratioP1;P1;durP2;ratioP2;P2;SDS_P1;SDS_P2;PMS_P1;PMS_P2;Temp;Humidity;BMP_temperature;BMP_pressure;BME280_temperature;BME280_humidity;BME280_pressure;Samples;Min_cycle;Max_cycle;Signal;HPM_P1;HPM_P2
2021/10/14 00:01:32;;;;;;;4.88;2.40;;;;;;;7.18;nan;102178.16;5066221;28;20025;-74
2021/10/14 00:03:58;;;;;;;7.65;2.20;;;;;;;7.21;nan;102172.47;5063808;28;20059;-74
2021/10/14 00:06:23;;;;;;;3.55;2.17;;;;;;;7.30;nan;102178.47;5064305;28;20029;-74
2021/10/14 00:08:48;;;;;;;4.07;2.60;;;;;;;7.33;nan;102183.41;5063730;28;20025;-74
2021/10/14 00:11:14;;;;;;;5.13;2.40;;;;;;;7.34;nan;102185.06;5063315;28;20102;-74
2021/10/14 00:13:39;;;;;;;5.97;2.47;;;;;;;7.36;nan;102179.53;5063227;28;20393;-74
2021/10/14 00:16:05;;;;;;;5.03;2.58;;;;;;;7.36;nan;102174.19;5065422;28;20105;-74
2021/10/14 00:18:31;;;;;;;5.47;2.60;;;;;;;7.38;nan;102185.53;5066307;28;20028;-75
2021/10/14 00:20:57;;;;;;;4.07;2.65;;;;;;;7.37;nan;102181.22;5065985;28;20702;-74
2021/10/14 00:23:22;;;;;;;4.38;2.58;;;;;;;7.38;nan;102178.34;5060156;28;20440;-74
2021/10/14 00:25:48;;;;;;;4.15;2.45;;;;;;;7.37;nan;102175.88;5061466;28;20123;-74
2021/10/14 00:28:14;;;;;;;4.03;2.38;;;;;;;7.31;nan;102166.78;5064574;28;20044;-74
2021/10/14 00:30:39;;;;;;;4.93;3.05;;;;;;;7.35;nan;102157.38;5066115;28;20028;-75
2021/10/14 00:33:04;;;;;;;3.85;2.05;;;;;;;7.37;nan;102171.38;5064160;28;20024;-74
2021/10/14 00:35:30;;;;;;;5.03;2.67;;;;;;;7.39;nan;102164.00;5064777;28;20028;-74
2021/10/14 00:37:55;;;;;;;5.82;2.50;;;;;;;7.42;nan;102160.13;5060854;28;20583;-74
2021/10/14 00:40:23;;;;;;;4.50;2.55;;;;;;;7.46;nan;102159.53;5061466;28;20028;-74
2021/10/14 00:42:48;;;;;;;5.03;2.40;;;;;;;7.41;nan;102167.28;5061213;28;20521;-74
2021/10/14 00:45:14;;;;;;;7.57;2.72;;;;;;;7.44;nan;102158.91;5066595;28;20036;-74
2021/10/14 00:47:40;;;;;;;3.05;2.40;;;;;;;7.47;nan;102158.50;5063412;28;20123;-74
2021/10/14 00:50:07;;;;;;;4.60;2.50;;;;;;;7.53;nan;102157.72;5063851;28;20103;-74
2021/10/14 00:52:34;;;;;;;7.93;3.38;;;;;;;7.45;nan;102144.56;5064117;28;20030;-74
2021/10/14 00:55:01;;;;;;;6.68;2.83;;;;;;;7.45;nan;102141.06;5060486;28;20047;-74
2021/10/14 00:57:29;;;;;;;2.83;2.38;;;;;;;7.48;nan;102141.50;5061183;28;20025;-74
2021/10/14 00:59:55;;;;;;;4.57;2.65;;;;;;;7.49;nan;102143.13;5076270;28;20067;-75
2021/10/14 01:02:21;;;;;;;5.07;2.55;;;;;;;7.47;nan;102144.34;5065053;28;20028;-74
2021/10/14 01:04:46;;;;;;;4.75;2.47;;;;;;;7.48;nan;102136.16;5061692;28;20035;-75
2021/10/14 01:07:12;;;;;;;6.18;2.45;;;;;;;7.50;nan;102133.28;5061749;28;20410;-74
2021/10/14 01:09:40;;;;;;;5.00;2.67;;;;;;;7.53;nan;102124.91;5057113;28;20115;-75
2021/10/14 01:12:07;;;;;;;5.88;2.30;;;;;;;7.55;nan;102123.72;5063416;28;20040;-74
2021/10/14 01:14:32;;;;;;;4.30;2.33;;;;;;;7.58;nan;102118.00;5063223;28;20601;-74
2021/10/14 01:16:58;;;;;;;3.65;2.05;;;;;;;7.58;nan;102103.81;5078481;28;20043;-74
2021/10/14 01:19:24;;;;;;;3.80;2.60;;;;;;;7.56;nan;102106.69;5063821;28;20089;-74
2021/10/14 01:21:50;;;;;;;4.45;2.67;;;;;;;7.54;nan;102103.41;5062244;28;20036;-74
2021/10/14 01:24:16;;;;;;;9.00;2.90;;;;;;;7.58;nan;102099.31;5059556;28;20029;-74
2021/10/14 01:26:42;;;;;;;8.65;2.50;;;;;;;7.57;nan;102096.84;5062442;28;20035;-74
2021/10/14 01:29:08;;;;;;;5.25;2.58;;;;;;;7.43;nan;102101.25;5062884;28;20024;-75
2021/10/14 01:31:34;;;;;;;7.13;2.95;;;;;;;7.60;nan;102100.97;5062990;28;20042;-74
2021/10/14 01:33:59;;;;;;;3.20;2.25;;;;;;;7.64;nan;102097.69;5063133;28;20033;-74
2021/10/14 01:36:25;;;;;;;6.95;2.63;;;;;;;7.60;nan;102101.78;5063348;28;20028;-75
2021/10/14 01:38:52;;;;;;;5.47;2.35;;;;;;;7.61;nan;102097.28;5063557;28;20541;-74
2021/10/14 01:41:17;;;;;;;4.60;2.42;;;;;;;7.58;nan;102091.31;5058880;28;20025;-74
2021/10/14 01:43:43;;;;;;;4.32;2.60;;;;;;;7.65;nan;102093.19;5061020;28;20032;-74
2021/10/14 01:46:10;;;;;;;3.22;2.40;;;;;;;7.65;nan;102090.53;5059966;28;20036;-74
2021/10/14 01:48:36;;;;;;;6.65;2.80;;;;;;;7.60;nan;102095.63;5062412;28;20021;-74
2021/10/14 01:51:03;;;;;;;4.65;2.55;;;;;;;7.60;nan;102095.63;5058826;28;20040;-74
2021/10/14 01:53:29;;;;;;;7.80;2.45;;;;;;;7.64;nan;102094.22;5060090;28;20503;-74
2021/10/14 01:55:55;;;;;;;4.40;2.60;;;;;;;7.66;nan;102097.50;5058866;28;20407;-74
2021/10/14 01:58:21;;;;;;;4.25;2.90;;;;;;;7.70;nan;102098.75;5061546;28;20061;-74
2021/10/14 02:00:49;;;;;;;5.63;2.20;;;;;;;7.64;nan;102091.53;5060222;28;20145;-74
2021/10/14 02:03:15;;;;;;;8.02;2.70;;;;;;;7.65;nan;102096.69;5060433;28;20118;-74
2021/10/14 02:05:40;;;;;;;7.40;2.70;;;;;;;7.66;nan;102101.00;5059582;28;20059;-74
2021/10/14 02:08:06;;;;;;;5.22;2.95;;;;;;;7.71;nan;102093.22;5063041;28;20054;-74
2021/10/14 02:10:32;;;;;;;9.68;3.72;;;;;;;7.69;nan;102089.09;5060512;28;20067;-75
2021/10/14 02:12:57;;;;;;;8.13;3.28;;;;;;;7.71;nan;102089.72;5054171;28;20035;-74
2021/10/14 02:15:23;;;;;;;5.03;2.78;;;;;;;7.74;nan;102089.38;5058328;28;20024;-75
2021/10/14 02:17:48;;;;;;;3.17;2.50;;;;;;;7.78;nan;102087.94;5061714;28;20016;-75
2021/10/14 02:20:14;;;;;;;4.90;2.70;;;;;;;7.83;nan;102090.84;5061544;28;20132;-74
2021/10/14 02:22:40;;;;;;;3.65;2.58;;;;;;;7.77;nan;102081.78;5058918;28;20059;-74
2021/10/14 02:25:07;;;;;;;7.13;2.85;;;;;;;7.79;nan;102089.59;5056209;28;20063;-74
2021/10/14 02:27:33;;;;;;;7.78;3.42;;;;;;;7.80;nan;102091.22;5061042;28;20033;-75
2021/10/14 02:29:58;;;;;;;5.85;2.88;;;;;;;7.82;nan;102092.69;5061122;28;20119;-75
2021/10/14 02:32:24;;;;;;;6.68;3.20;;;;;;;7.81;nan;102084.88;5061269;28;20059;-75
2021/10/14 02:34:50;;;;;;;10.80;3.22;;;;;;;7.87;nan;102084.06;5058840;28;20668;-74
2021/10/14 02:37:16;;;;;;;5.03;2.75;;;;;;;7.86;nan;102083.25;5060611;28;20037;-75
2021/10/14 02:39:41;;;;;;;6.03;2.80;;;;;;;7.86;nan;102085.09;5059667;28;20387;-74
2021/10/14 02:42:07;;;;;;;3.53;2.78;;;;;;;7.95;nan;102081.25;5055861;28;20023;-75
2021/10/14 02:44:32;;;;;;;5.90;3.25;;;;;;;8.02;nan;102087.44;5061835;28;20090;-74
2021/10/14 02:46:58;;;;;;;6.10;3.20;;;;;;;8.00;nan;102089.50;5059580;28;20064;-75
2021/10/14 02:49:23;;;;;;;6.72;2.97;;;;;;;7.99;nan;102085.19;5063936;28;20124;-74
2021/10/14 02:51:49;;;;;;;4.88;2.95;;;;;;;7.98;nan;102086.19;5082021;28;20039;-74
2021/10/14 02:54:14;;;;;;;6.82;3.63;;;;;;;8.01;nan;102087.63;5063775;28;20025;-74
2021/10/14 02:56:40;;;;;;;5.80;3.28;;;;;;;8.03;nan;102089.09;5066564;28;20016;-75
2021/10/14 02:59:05;;;;;;;7.45;3.80;;;;;;;8.00;nan;102086.81;5060427;28;20074;-74
2021/10/14 03:01:31;;;;;;;5.28;3.13;;;;;;;7.99;nan;102085.19;5062788;28;20024;-75
2021/10/14 03:03:56;;;;;;;5.95;3.60;;;;;;;8.08;nan;102085.84;5057896;28;20625;-74
2021/10/14 03:06:22;;;;;;;9.00;3.50;;;;;;;8.05;nan;102079.03;5062760;28;20033;-75
2021/10/14 03:08:54;;;;;;;5.70;3.53;;;;;;;8.04;nan;102085.41;5060725;28;20041;-76
2021/10/14 03:11:19;;;;;;;6.70;3.75;;;;;;;8.04;nan;102084.56;5059654;28;20089;-75
2021/10/14 03:13:45;;;;;;;5.28;3.30;;;;;;;8.14;nan;102077.03;5065364;28;20029;-74
2021/10/14 03:16:11;;;;;;;7.30;3.90;;;;;;;8.16;nan;102074.97;5061832;28;20028;-75
2021/10/14 03:18:36;;;;;;;4.90;4.07;;;;;;;8.14;nan;102077.84;5063816;28;20028;-75
2021/10/14 03:21:02;;;;;;;9.98;3.33;;;;;;;8.08;nan;102076.00;5065681;28;20730;-75
2021/10/14 03:23:27;;;;;;;8.63;3.00;;;;;;;8.11;nan;102072.09;5065382;28;20033;-75
2021/10/14 03:25:53;;;;;;;4.78;3.33;;;;;;;8.06;nan;102072.66;5058870;28;20542;-75
2021/10/14 03:28:19;;;;;;;8.88;3.90;;;;;;;8.14;nan;102077.84;5066170;28;20040;-75
2021/10/14 03:30:44;;;;;;;6.85;3.90;;;;;;;8.14;nan;102072.50;5060609;28;20161;-75
2021/10/14 03:33:10;;;;;;;6.65;3.30;;;;;;;8.15;nan;102076.81;5060514;28;20024;-75
2021/10/14 03:35:35;;;;;;;7.20;3.20;;;;;;;8.17;nan;102071.28;5060884;28;20172;-75
2021/10/14 03:38:01;;;;;;;8.75;4.00;;;;;;;8.19;nan;102063.91;5063331;28;20028;-75
2021/10/14 03:40:28;;;;;;;5.35;3.30;;;;;;;8.07;nan;102071.66;5062938;28;20031;-75
2021/10/14 03:42:54;;;;;;;5.72;3.17;;;;;;;8.16;nan;102072.31;5062397;28;20028;-74
2021/10/14 03:45:19;;;;;;;8.50;2.97;;;;;;;8.21;nan;102067.19;5061385;28;20455;-74
2021/10/14 03:47:45;;;;;;;7.47;2.80;;;;;;;8.26;nan;102066.56;5062209;28;20025;-74
2021/10/14 03:50:10;;;;;;;4.88;3.05;;;;;;;8.25;nan;102055.06;5060530;28;20564;-74
2021/10/14 03:52:37;;;;;;;6.15;2.80;;;;;;;8.26;nan;102056.75;5061896;28;20024;-74
2021/10/14 03:55:02;;;;;;;9.75;3.35;;;;;;;8.23;nan;102059.78;5062374;28;20028;-74
2021/10/14 03:57:28;;;;;;;8.05;2.95;;;;;;;8.18;nan;102062.25;5060860;28;20604;-74
2021/10/14 03:59:53;;;;;;;6.60;3.03;;;;;;;8.18;nan;102057.72;5060071;28;20021;-75
2021/10/14 04:02:19;;;;;;;6.85;3.00;;;;;;;8.23;nan;102059.78;5059681;28;20040;-75
2021/10/14 04:04:45;;;;;;;7.90;2.47;;;;;;;8.29;nan;102052.84;5060163;28;20490;-75
2021/10/14 04:07:13;;;;;;;6.90;2.45;;;;;;;8.29;nan;102052.84;5071137;28;20190;-75
2021/10/14 04:09:39;;;;;;;3.40;2.70;;;;;;;8.26;nan;102048.75;5068853;28;20574;-75
2021/10/14 04:12:05;;;;;;;3.90;2.20;;;;;;;8.34;nan;102061.09;5061344;28;20109;-75
2021/10/14 04:14:30;;;;;;;4.07;2.28;;;;;;;8.21;nan;102050.34;5063026;28;20043;-75
2021/10/14 04:16:55;;;;;;;5.20;2.03;;;;;;;8.22;nan;102057.31;5063450;28;20364;-75
2021/10/14 04:19:21;;;;;;;7.22;2.78;;;;;;;8.17;nan;102050.75;5060042;28;20071;-75
2021/10/14 04:21:48;;;;;;;3.35;1.75;;;;;;;8.11;nan;102050.75;5059844;28;20028;-76
2021/10/14 04:24:14;;;;;;;8.00;2.60;;;;;;;8.09;nan;102050.13;5063231;28;20075;-76
2021/10/14 04:26:40;;;;;;;4.50;2.63;;;;;;;8.12;nan;102049.72;5061456;28;20028;-76
2021/10/14 04:29:05;;;;;;;4.60;1.90;;;;;;;8.05;nan;102044.34;5058594;28;20892;-76
2021/10/14 04:31:31;;;;;;;4.20;2.58;;;;;;;7.98;nan;102038.16;5060425;28;20025;-76
2021/10/14 04:33:56;;;;;;;6.93;2.97;;;;;;;7.97;nan;102036.50;5062510;28;20034;-76
2021/10/14 04:36:22;;;;;;;9.52;3.00;;;;;;;8.05;nan;102035.50;5063797;28;20021;-76
2021/10/14 04:38:48;;;;;;;5.60;2.50;;;;;;;8.10;nan;102033.91;5059540;28;20033;-76
2021/10/14 04:41:14;;;;;;;7.65;3.92;;;;;;;8.04;nan;102041.88;5061121;28;20024;-75
2021/10/14 04:43:39;;;;;;;5.55;3.25;;;;;;;7.99;nan;102031.78;5063013;28;20098;-76
2021/10/14 04:46:07;;;;;;;7.95;4.00;;;;;;;7.93;nan;102026.44;5061325;28;20077;-76
2021/10/14 04:48:32;;;;;;;7.20;3.55;;;;;;;7.99;nan;102026.47;5063375;28;20028;-75
2021/10/14 04:50:58;;;;;;;9.55;3.92;;;;;;;8.02;nan;102036.72;5059582;28;20086;-75
2021/10/14 04:53:23;;;;;;;5.20;2.75;;;;;;;7.89;nan;102032.16;5061506;28;20036;-76
2021/10/14 04:55:49;;;;;;;10.48;4.05;;;;;;;7.94;nan;102025.41;5062849;28;20496;-75
2021/10/14 04:58:15;;;;;;;6.65;3.80;;;;;;;7.89;nan;102032.16;5064557;28;20110;-75
2021/10/14 05:00:40;;;;;;;9.88;4.72;;;;;;;7.89;nan;102026.81;5062672;28;20567;-75
2021/10/14 05:03:06;;;;;;;9.98;4.40;;;;;;;7.92;nan;102019.47;5061968;28;20033;-75
2021/10/14 05:05:32;;;;;;;10.70;4.53;;;;;;;7.96;nan;102024.19;5063100;28;20032;-75
2021/10/14 05:07:58;;;;;;;10.20;5.28;;;;;;;8.03;nan;102021.53;5062770;28;20025;-75
2021/10/14 05:10:24;;;;;;;13.80;5.15;;;;;;;7.96;nan;102021.53;5059132;28;20114;-75
2021/10/14 05:12:49;;;;;;;10.43;5.18;;;;;;;8.08;nan;102019.94;5060063;28;20027;-75
2021/10/14 05:15:15;;;;;;;8.32;4.95;;;;;;;8.06;nan;102021.94;5062084;28;20067;-75
2021/10/14 05:17:40;;;;;;;7.15;5.15;;;;;;;8.10;nan;102028.56;5063364;28;20099;-75
2021/10/14 05:20:07;;;;;;;10.32;5.30;;;;;;;8.09;nan;102024.25;5061318;28;20506;-75
2021/10/14 05:22:33;;;;;;;11.15;4.55;;;;;;;7.97;nan;102022.34;5054178;28;20454;-75
2021/10/14 05:24:59;;;;;;;9.23;5.07;;;;;;;8.01;nan;102024.41;5062688;28;20028;-75
2021/10/14 05:27:24;;;;;;;12.00;6.07;;;;;;;8.07;nan;102028.13;5060755;28;20029;-75
2021/10/14 05:29:50;;;;;;;9.20;4.47;;;;;;;8.18;nan;102017.69;5059521;28;20024;-75
2021/10/14 05:32:15;;;;;;;10.88;4.95;;;;;;;8.23;nan;102021.59;5060763;28;20067;-75
2021/10/14 05:34:41;;;;;;;9.27;5.35;;;;;;;8.10;nan;102022.41;5059692;28;20025;-76
2021/10/14 05:37:07;;;;;;;8.48;5.15;;;;;;;8.09;nan;102018.09;5060632;28;20158;-75
2021/10/14 05:39:32;;;;;;;8.30;5.25;;;;;;;8.14;nan;102028.97;5058393;28;20035;-75
2021/10/14 05:41:58;;;;;;;10.55;4.97;;;;;;;8.19;nan;102021.19;5058684;28;20498;-75
2021/10/14 05:44:23;;;;;;;8.75;4.90;;;;;;;8.19;nan;102026.53;5058897;28;20029;-74
2021/10/14 05:46:49;;;;;;;7.20;4.63;;;;;;;8.12;nan;102026.50;5059782;28;20032;-74
2021/10/14 05:49:14;;;;;;;8.68;4.95;;;;;;;8.22;nan;102030.63;5059994;28;20528;-76
2021/10/14 05:51:40;;;;;;;11.27;5.35;;;;;;;8.30;nan;102023.28;5061511;28;20062;-74
2021/10/14 05:54:05;;;;;;;8.65;5.25;;;;;;;8.31;nan;102026.78;5060279;28;20024;-74
2021/10/14 05:56:31;;;;;;;8.90;5.03;;;;;;;8.39;nan;102026.59;5062488;28;20044;-75
2021/10/14 05:58:56;;;;;;;7.35;4.72;;;;;;;8.46;nan;102032.78;5061567;28;20020;-75
2021/10/14 06:01:22;;;;;;;7.75;5.18;;;;;;;8.46;nan;102035.47;5060283;28;20032;-75
2021/10/14 06:03:48;;;;;;;7.75;4.72;;;;;;;8.45;nan;102041.84;5056015;28;20061;-75
2021/10/14 06:06:13;;;;;;;8.65;4.85;;;;;;;8.46;nan;102035.47;5060349;28;20413;-75
2021/10/14 06:08:39;;;;;;;9.50;4.57;;;;;;;8.47;nan;102035.25;5060933;28;20024;-75
2021/10/14 06:11:04;;;;;;;8.75;4.57;;;;;;;8.53;nan;102032.78;5060098;28;20111;-75
2021/10/14 06:13:30;;;;;;;9.25;4.82;;;;;;;8.53;nan;102027.47;5055425;28;20037;-75
2021/10/14 06:15:56;;;;;;;8.40;4.50;;;;;;;8.42;nan;102028.88;5074854;28;20032;-75
2021/10/14 06:18:21;;;;;;;8.32;5.15;;;;;;;8.44;nan;102010.81;5056204;28;20028;-75
2021/10/14 06:20:47;;;;;;;9.70;5.22;;;;;;;8.44;nan;102018.81;5060374;28;20029;-75
2021/10/14 06:23:13;;;;;;;7.28;4.82;;;;;;;8.52;nan;102018.63;5060039;28;20045;-75
2021/10/14 06:25:38;;;;;;;7.82;5.20;;;;;;;8.53;nan;102006.91;5055331;28;20031;-75
2021/10/14 06:28:05;;;;;;;8.20;5.20;;;;;;;8.58;nan;102007.09;5060448;28;20062;-75
2021/10/14 06:30:32;;;;;;;8.00;5.10;;;;;;;8.63;nan;102004.66;5059848;28;20124;-75
2021/10/14 06:32:58;;;;;;;9.48;5.13;;;;;;;8.74;nan;102008.56;5058660;28;20033;-75
2021/10/14 06:35:24;;;;;;;9.20;5.03;;;;;;;8.74;nan;102008.56;5061210;28;20025;-75
2021/10/14 06:37:50;;;;;;;6.38;3.63;;;;;;;8.81;nan;102011.25;5060646;28;20083;-75
2021/10/14 06:40:15;;;;;;;6.22;4.65;;;;;;;8.78;nan;102015.13;5059226;28;20076;-75
2021/10/14 06:42:41;;;;;;;6.15;3.97;;;;;;;8.81;nan;102005.91;5051080;28;20032;-75
2021/10/14 06:45:07;;;;;;;7.82;4.78;;;;;;;8.95;nan;102005.69;5060625;28;20111;-75
2021/10/14 06:47:34;;;;;;;8.95;4.57;;;;;;;8.99;nan;101995.41;5058556;28;20513;-75
2021/10/14 06:49:59;;;;;;;7.47;4.57;;;;;;;9.11;nan;102004.44;5066703;28;20408;-75
2021/10/14 06:52:25;;;;;;;5.70;4.20;;;;;;;9.06;nan;102007.75;5060462;28;20021;-75
2021/10/14 06:54:50;;;;;;;5.80;3.92;;;;;;;9.08;nan;101997.66;5064219;28;20028;-75
2021/10/14 06:57:17;;;;;;;6.35;3.45;;;;;;;9.21;nan;101994.16;5060078;28;20020;-75
2021/10/14 06:59:43;;;;;;;6.47;3.88;;;;;;;9.23;nan;101996.63;5062760;28;20047;-75
2021/10/14 07:02:08;;;;;;;4.80;3.38;;;;;;;9.24;nan;101992.91;5059362;28;20589;-75
2021/10/14 07:04:34;;;;;;;6.03;3.88;;;;;;;9.27;nan;101995.97;5064159;28;20028;-75
2021/10/14 07:07:00;;;;;;;4.13;3.50;;;;;;;9.26;nan;101994.34;5066580;28;20029;-75
2021/10/14 07:09:25;;;;;;;5.80;4.13;;;;;;;9.23;nan;102000.09;5062855;28;20111;-75
2021/10/14 07:11:57;;;;;;;6.13;3.17;;;;;;;9.24;nan;102001.75;5061698;28;20123;-75
2021/10/14 07:14:23;;;;;;;7.20;3.70;;;;;;;9.28;nan;102002.97;5063613;28;20040;-75
2021/10/14 07:16:49;;;;;;;4.88;3.35;;;;;;;9.34;nan;102004.84;5063388;28;20025;-72
2021/10/14 07:19:15;;;;;;;4.07;3.08;;;;;;;9.31;nan;101999.88;5060857;28;20036;-74
2021/10/14 07:21:40;;;;;;;5.18;3.03;;;;;;;9.51;nan;101999.00;5081241;28;20170;-75
2021/10/14 07:24:06;;;;;;;4.00;2.90;;;;;;;9.53;nan;102005.00;5064805;28;20056;-74
2021/10/14 07:26:31;;;;;;;3.92;2.53;;;;;;;9.53;nan;101999.63;5061604;28;20098;-75
2021/10/14 07:28:57;;;;;;;4.15;2.63;;;;;;;9.56;nan;101991.19;5061316;28;20033;-75
2021/10/14 07:31:23;;;;;;;3.35;2.58;;;;;;;9.73;nan;101988.88;5062536;28;20560;-75
2021/10/14 07:33:48;;;;;;;4.22;2.30;;;;;;;9.64;nan;101993.63;5065743;28;20055;-75
2021/10/14 07:36:13;;;;;;;2.55;2.35;;;;;;;9.74;nan;101994.00;5064548;28;20024;-75
2021/10/14 07:38:39;;;;;;;3.38;2.53;;;;;;;9.88;nan;101994.78;5060170;28;20056;-75
2021/10/14 07:41:05;;;;;;;3.08;2.20;;;;;;;9.93;nan;102002.97;5065012;28;20020;-74
2021/10/14 07:43:30;;;;;;;3.13;2.08;;;;;;;9.98;nan;102006.66;5062167;28;20041;-75
2021/10/14 07:45:56;;;;;;;3.63;2.70;;;;;;;9.91;nan;102005.88;5064544;28;20178;-74
2021/10/14 07:48:21;;;;;;;2.72;2.20;;;;;;;10.13;nan;102005.56;5063082;28;20474;-74
2021/10/14 07:50:47;;;;;;;3.28;2.25;;;;;;;10.14;nan;101999.97;5062208;28;21049;-74
2021/10/14 07:53:17;;;;;;;3.83;2.55;;;;;;;10.09;nan;102005.16;5062801;28;20032;-74
2021/10/14 07:55:44;;;;;;;5.32;2.60;;;;;;;10.15;nan;102014.19;5063110;28;20486;-74
2021/10/14 07:58:10;;;;;;;5.05;2.60;;;;;;;10.25;nan;102006.56;5055422;28;20119;-75
2021/10/14 08:00:37;;;;;;;2.70;2.10;;;;;;;10.31;nan;102005.69;5059625;28;20028;-75
2021/10/14 08:03:03;;;;;;;5.20;2.70;;;;;;;10.41;nan;101987.28;5059055;28;20032;-75
2021/10/14 08:05:29;;;;;;;4.30;2.50;;;;;;;10.42;nan;101983.59;5060618;28;20087;-75
2021/10/14 08:07:54;;;;;;;3.17;2.28;;;;;;;10.64;nan;101985.88;5064112;28;20024;-75
2021/10/14 08:10:20;;;;;;;3.13;2.60;;;;;;;10.69;nan;101996.78;5061052;28;20048;-75
2021/10/14 08:12:45;;;;;;;3.92;2.20;;;;;;;10.73;nan;101997.97;5063936;28;20033;-75
2021/10/14 08:15:11;;;;;;;2.47;2.05;;;;;;;10.72;nan;101990.97;5062664;28;20028;-75
2021/10/14 08:17:37;;;;;;;2.50;2.00;;;;;;;10.75;nan;101980.63;5062980;28;20040;-75
2021/10/14 08:20:08;;;;;;;2.15;1.95;;;;;;;10.87;nan;101980.75;5062744;28;20043;-75
2021/10/14 08:22:36;;;;;;;3.63;2.60;;;;;;;10.72;nan;101981.06;5078473;28;20025;-75
2021/10/14 08:25:03;;;;;;;4.82;2.60;;;;;;;10.86;nan;101976.41;5061578;28;20036;-75
2021/10/14 08:27:29;;;;;;;3.63;2.55;;;;;;;10.99;nan;101976.31;5066308;28;20406;-75
2021/10/14 08:29:54;;;;;;;2.88;2.20;;;;;;;11.03;nan;101982.88;5061914;28;20020;-75
2021/10/14 08:32:20;;;;;;;3.55;2.10;;;;;;;11.20;nan;101983.13;5054597;28;20035;-75
2021/10/14 08:34:45;;;;;;;5.53;2.53;;;;;;;11.24;nan;101991.53;5064123;28;20029;-75
2021/10/14 08:37:11;;;;;;;4.30;2.78;;;;;;;11.22;nan;101985.56;5063597;28;20016;-75
2021/10/14 20:14:31;;;;;;;15.15;8.82;;;;;;;10.98;nan;101690.41;5073780;28;20173;-48
2021/10/14 20:22:23;;;;;;;18.65;10.45;;;;;;;10.94;nan;101683.84;5078214;28;20054;-49
2021/10/14 20:24:49;;;;;;;19.02;9.55;;;;;;;10.93;nan;101684.09;5077852;28;20024;-49
2021/10/14 20:27:15;;;;;;;18.20;10.32;;;;;;;10.98;nan;101685.06;5079230;28;20413;-47
2021/10/14 20:29:40;;;;;;;21.38;9.38;;;;;;;10.97;nan;101682.59;5079746;28;20161;-48
2021/10/14 20:32:06;;;;;;;14.32;9.00;;;;;;;11.04;nan;101680.63;5078398;28;20477;-50
2021/10/14 20:37:04;;;;;;;17.95;10.48;;;;;;;10.91;nan;101678.94;5077862;28;20369;-50
2021/10/14 20:39:29;;;;;;;20.30;11.30;;;;;;;11.07;nan;101689.03;5070274;28;20139;-48
2021/10/14 20:41:55;;;;;;;19.92;11.05;;;;;;;11.05;nan;101676.91;5075164;28;20100;-50
2021/10/14 20:44:21;;;;;;;17.30;10.00;;;;;;;11.04;nan;101678.78;5076387;28;20097;-47
2021/10/14 20:46:46;;;;;;;18.02;10.85;;;;;;;11.04;nan;101675.28;5080091;28;20117;-49
2021/10/14 20:49:12;;;;;;;17.83;10.48;;;;;;;10.93;nan;101676.84;5078568;28;20085;-49
2021/10/14 20:51:46;;;;;;;19.13;11.00;;;;;;;11.04;nan;101678.78;5077522;28;20033;-48
2021/10/14 20:54:19;;;;;;;20.35;11.13;;;;;;;11.00;nan;101682.13;5064668;28;20031;-49
2021/10/14 21:04:26;;;;;;;18.60;11.00;;;;;;;11.11;nan;101668.75;5074698;28;20048;-50
2021/10/14 21:06:51;;;;;;;17.67;10.20;;;;;;;11.12;nan;101669.56;5071606;28;20481;-48
2021/10/14 21:09:17;;;;;;;21.38;10.63;;;;;;;11.17;nan;101669.72;5073428;28;20138;-47
2021/10/14 21:11:43;;;;;;;17.33;10.18;;;;;;;11.10;nan;101663.63;5066640;28;20038;-48
2021/10/14 21:14:09;;;;;;;15.73;9.63;;;;;;;11.07;nan;101670.25;5077276;28;20088;-50
2021/10/14 21:16:35;;;;;;;16.65;8.77;;;;;;;11.14;nan;101662.13;5074872;28;20024;-49
2021/10/14 21:19:01;;;;;;;22.85;11.25;;;;;;;11.14;nan;101670.19;5072463;28;20398;-47
2021/10/14 21:21:27;;;;;;;18.77;11.20;;;;;;;11.14;nan;101662.13;5075333;28;20039;-51
2021/10/14 21:23:53;;;;;;;17.98;10.80;;;;;;;11.11;nan;101660.72;5074374;28;20032;-47
2021/10/14 21:26:22;;;;;;;18.88;10.02;;;;;;;11.12;nan;101656.97;5074041;28;20027;-49
2021/10/14 21:29:01;;;;;;;22.67;10.95;;;;;;;11.07;nan;101656.84;5071641;28;20032;-50
2021/10/14 21:36:58;;;;;;;18.88;10.70;;;;;;;11.07;nan;101654.16;5072060;28;20173;-47
2021/10/14 21:39:23;;;;;;;18.27;10.07;;;;;;;11.16;nan;101646.63;5079088;28;20127;-48
2021/10/14 21:41:49;;;;;;;19.48;10.77;;;;;;;11.11;nan;101652.66;5073454;28;20024;-50
2021/10/14 21:44:14;;;;;;;20.52;11.75;;;;;;;11.13;nan;101655.97;5071104;28;20417;-47
2021/10/14 21:46:39;;;;;;;18.98;10.82;;;;;;;11.12;nan;101653.47;5073096;28;20032;-48
2021/10/14 21:49:05;;;;;;;15.82;10.02;;;;;;;11.08;nan;101652.31;5069742;28;20290;-48
2021/10/14 21:51:31;;;;;;;17.67;10.30;;;;;;;11.11;nan;101646.47;5066979;28;20439;-48
2021/10/14 21:54:04;;;;;;;17.85;10.43;;;;;;;11.01;nan;101656.97;5079543;28;20028;-47
2021/10/14 21:56:33;;;;;;;20.67;10.57;;;;;;;11.17;nan;101646.41;5070012;28;20028;-50
2021/10/14 21:58:59;;;;;;;19.27;10.32;;;;;;;11.11;nan;101652.66;5067666;28;20425;-51
2021/10/14 22:01:24;;;;;;;17.88;10.23;;;;;;;11.09;nan;101654.75;5066764;28;20033;-49
2021/10/14 22:03:50;;;;;;;20.75;10.38;;;;;;;11.03;nan;101649.50;5073211;28;20055;-49
2021/10/14 22:06:16;;;;;;;18.23;9.60;;;;;;;11.10;nan;101645.66;5073683;28;20027;-48
2021/10/14 22:08:42;;;;;;;18.27;9.82;;;;;;;11.11;nan;101644.63;5068909;28;20083;-47
2021/10/14 22:11:07;;;;;;;18.42;9.80;;;;;;;11.19;nan;101638.94;5071009;28;20024;-49
2021/10/14 22:13:33;;;;;;;16.48;9.05;;;;;;;11.15;nan;101648.50;5069494;28;20025;-46
2021/10/14 22:15:58;;;;;;;19.42;9.52;;;;;;;11.21;nan;101641.38;5068811;28;20035;-47
2021/10/14 22:18:24;;;;;;;16.08;8.43;;;;;;;11.10;nan;101640.28;5073190;28;20052;-49
2021/10/14 22:20:49;;;;;;;20.40;9.90;;;;;;;11.12;nan;101634.69;5070430;28;20058;-48
2021/10/14 22:23:16;;;;;;;15.82;8.95;;;;;;;11.13;nan;101629.13;5069578;28;20044;-46
2021/10/14 22:25:42;;;;;;;15.40;9.20;;;;;;;11.21;nan;101619.91;5077203;28;20028;-46
2021/10/14 22:28:09;;;;;;;20.00;9.80;;;;;;;11.19;nan;101614.78;5073962;28;20027;-47
2021/10/14 22:30:34;;;;;;;18.73;9.50;;;;;;;11.19;nan;101616.66;5073197;28;20039;-48
2021/10/14 22:32:59;;;;;;;15.98;9.00;;;;;;;11.08;nan;101620.13;5076116;28;20374;-48
2021/10/14 22:35:25;;;;;;;15.13;8.98;;;;;;;11.12;nan;101626.66;5077560;28;20060;-48
2021/10/14 22:37:50;;;;;;;14.95;9.65;;;;;;;11.24;nan;101619.47;5084861;28;20078;-47
2021/10/14 22:40:16;;;;;;;18.30;8.95;;;;;;;11.24;nan;101618.63;5082481;28;20072;-46
2021/10/14 22:42:42;;;;;;;14.20;8.88;;;;;;;11.25;nan;101614.91;5075001;28;20034;-46
2021/10/14 22:45:08;;;;;;;15.95;8.48;;;;;;;11.24;nan;101614.09;5086427;28;20424;-46
2021/10/14 22:47:35;;;;;;;16.95;9.43;;;;;;;11.27;nan;101610.13;5093615;28;20011;-48
2021/10/14 22:50:00;;;;;;;17.17;9.00;;;;;;;11.21;nan;101606.50;5090244;28;20104;-47
2021/10/14 22:52:26;;;;;;;19.55;9.98;;;;;;;11.23;nan;101608.97;5079899;28;20107;-47
2021/10/14 22:54:51;;;;;;;17.30;10.38;;;;;;;11.17;nan;101610.72;5077236;28;20028;-47
2021/10/14 22:57:17;;;;;;;24.30;11.30;;;;;;;11.16;nan;101609.06;5080665;28;20013;-47
2021/10/14 22:59:43;;;;;;;18.27;10.00;;;;;;;11.16;nan;101601.84;5081425;28;20115;-46
2021/10/14 23:02:08;;;;;;;16.77;10.18;;;;;;;11.13;nan;101596.09;5079898;28;20027;-47
2021/10/14 23:04:34;;;;;;;19.45;11.30;;;;;;;11.16;nan;101601.03;5081693;28;20512;-46
2021/10/14 23:07:00;;;;;;;20.92;12.10;;;;;;;11.07;nan;101592.50;5083900;28;20024;-48
2021/10/14 23:09:25;;;;;;;18.83;10.68;;;;;;;11.12;nan;101587.25;5067712;28;20035;-47
2021/10/14 23:11:52;;;;;;;21.33;11.55;;;;;;;11.15;nan;101589.47;5080897;28;20021;-47
2021/10/14 23:14:18;;;;;;;20.83;12.38;;;;;;;11.05;nan;101588.41;5072586;28;20155;-47
2021/10/14 23:16:43;;;;;;;28.15;11.77;;;;;;;11.08;nan;101582.56;5070402;28;20251;-46
2021/10/14 23:19:09;;;;;;;20.15;11.55;;;;;;;11.12;nan;101579.19;5073713;28;20077;-48
2021/10/14 23:21:35;;;;;;;22.02;11.95;;;;;;;11.12;nan;101575.69;5070065;28;20024;-48
2021/10/14 23:24:00;;;;;;;21.25;11.38;;;;;;;11.08;nan;101572.66;5080120;28;20486;-47
2021/10/14 23:26:26;;;;;;;26.85;12.63;;;;;;;11.15;nan;101578.75;5071398;28;20119;-49
2021/10/14 23:28:51;;;;;;;26.55;12.38;;;;;;;11.14;nan;101574.44;5068610;28;20115;-49
2021/10/14 23:31:17;;;;;;;22.13;12.45;;;;;;;11.06;nan;101573.94;5074275;28;20371;-46
2021/10/14 23:33:42;;;;;;;24.90;13.30;;;;;;;11.12;nan;101573.84;5081421;28;20279;-47